Davenport, IA (52806)

5:24 AM CST on January 25, 2015 (GMT -0600)
Ridgeview | Change Station
CLOSE
Current Station
Personal Weather Station
Location: Davenport, IA
Elevation: 735 ft
Nearby Weather Stations

Elev 735 ft 41.59 °N, 90.60 °W | Updated 12 minutes ago

Overcast
Overcast
32.5 °F
Feels Like 27 °F
N
6.3
Wind Variable Wind from ENE

Today
High -- | Low -- °F
--% Chance of Precip.
Yesterday
High -- | Low -- °F
Precip. -- in
7:20 AM 5:09 PM
Waxing Crescent, 31% visible
Pressure 29.63 in
Visibility 4.0 miles
Clouds Mostly Cloudy 500 ft
Overcast 5000 ft
Windchill 27 °F
Dew Point 29 °F
Humidity 88%
Rainfall 0.00 in
Snow Depth Not available.
UV 0 out of 12
Pollen .10 out of 12
Air Quality Not available.
Flu Activity Not available.
METAR KDVN 251052Z AUTO 08013KT 4SM BR BKN005 OVC050 01/M01 A2962 RMK AO2 SLP034 T00111006

More Conditions Fewer Conditions

Pressure 29.63 in
Visibility 4.0 miles
Clouds Mostly Cloudy 500 ft
Overcast 5000 ft
Windchill 27 °F
Dew Point 29 °F
Humidity 88%
Rainfall 0.00 in
Snow Depth Not available.
UV 0 out of 12
Pollen .10 out of 12
Air Quality Not available.
Flu Activity Not available.
METAR KDVN 251052Z AUTO 08013KT 4SM BR BKN005 OVC050 01/M01 A2962 RMK AO2 SLP034 T00111006

More Conditions Fewer Conditions

10-Day Weather Forecast

Almanac

Astronomy

Jan. 25, 2015 Rise Set
Actual Time
Civil Twilight
Nautical Twilight
Astronomical Twilight
Moon
Length of Visible Light
Length of Day
Tomorrow will be .
, % of the Moon is Illuminated

Today's Extremes

State Highs State Lows

Community

WunderPhotos

Upload Photos

1,789,869 photos uploaded!

WunderBlogs® & News

Nearby

Air Quality

  Air Quality AQ Index Pollutant
Not available.

Snow Depth

Station Depth Elevation

Earthquake Activity

City Distance Mag. Time & Date
Minimum magnitude displayed is 2.5.

Coastal Water Temperatures

Place Temperature

Nearby Weather Stations